createdAt,value
2023-01-06T00:01:16.912Z,99216.47
2023-01-06T00:03:18.415Z,99221.94
2023-01-06T00:05:20.290Z,99221.66
2023-01-06T00:07:21.966Z,99212.38
2023-01-06T00:09:23.615Z,99219.53
2023-01-06T00:11:28.285Z,99214.88
2023-01-06T00:13:29.813Z,99212.13
2023-01-06T00:15:32.381Z,99206.66
2023-01-06T00:17:34.267Z,99211.31
2023-01-06T00:19:38.970Z,99204.78
2023-01-06T00:21:42.557Z,99201.81
2023-01-06T00:23:44.100Z,99190.59
2023-01-06T00:25:50.779Z,99188.94
2023-01-06T00:27:52.398Z,99198.81
2023-01-06T00:29:53.953Z,99183.22
2023-01-06T00:31:58.542Z,99181.31
2023-01-06T00:34:00.103Z,99177.47
2023-01-06T00:36:05.461Z,99181.88
2023-01-06T00:38:07.399Z,99172.56
2023-01-06T00:40:09.614Z,99176.16
2023-01-06T00:42:12.907Z,99177.81
2023-01-06T00:44:14.523Z,99183.28
2023-01-06T00:46:16.113Z,99188.50
2023-01-06T00:48:17.797Z,99183.88
2023-01-06T00:50:19.573Z,99181.97
2023-01-06T00:52:21.276Z,99177.06
2023-01-06T00:54:22.970Z,99178.13
2023-01-06T00:56:24.544Z,99177.31
2023-01-06T00:58:30.118Z,99189.69
2023-01-06T01:00:31.722Z,99185.84
2023-01-06T01:02:34.131Z,99179.28
2023-01-06T01:04:35.740Z,99182.88
2023-01-06T01:06:37.934Z,99173.56
2023-01-06T01:08:39.620Z,99175.22
2023-01-06T01:10:44.170Z,99177.69
2023-01-06T01:12:48.803Z,99176.84
2023-01-06T01:14:53.621Z,99177.69
2023-01-06T01:16:55.506Z,99178.53
2023-01-06T01:19:00.334Z,99173.63
2023-01-06T01:21:02.824Z,99180.75
2023-01-06T01:23:04.300Z,99178.88
2023-01-06T01:25:11.205Z,99176.13
2023-01-06T01:27:13.439Z,99175.84
2023-01-06T01:29:17.107Z,99175.03
2023-01-06T01:31:18.841Z,99177.53
2023-01-06T01:33:20.442Z,99178.34
2023-01-06T01:35:22.079Z,99172.63
2023-01-06T01:37:23.640Z,99166.03
2023-01-06T01:39:31.811Z,99174.25
2023-01-06T01:41:33.422Z,99171.53
2023-01-06T01:43:47.164Z,99158.66
2023-01-06T01:45:54.048Z,99155.41
2023-01-06T01:48:03.490Z,99158.44
2023-01-06T01:50:22.348Z,99160.06
2023-01-06T01:52:24.800Z,99156.25
2023-01-06T01:54:30.135Z,99155.16
2023-01-06T01:56:38.900Z,99159.56
2023-01-06T01:58:46.072Z,99153.25
2023-01-06T02:00:51.568Z,99157.66
2023-01-06T02:02:54.872Z,99153.00
2023-01-06T02:04:56.840Z,99154.41
2023-01-06T02:06:58.644Z,99151.69
2023-01-06T02:09:26.843Z,99148.09
2023-01-06T02:11:32.582Z,99140.44
2023-01-06T02:13:37.025Z,99148.66
2023-01-06T02:15:43.229Z,99144.84
2023-01-06T02:18:08.838Z,99132.81
2023-01-06T02:20:22.597Z,99141.03
2023-01-06T02:23:02.711Z,99131.72
2023-01-06T02:25:38.103Z,99124.84
2023-01-06T02:28:05.777Z,99129.22
2023-01-06T02:30:38.816Z,99131.16
2023-01-06T02:32:43.429Z,99122.69
2023-01-06T02:35:01.790Z,99125.41
2023-01-06T02:37:30.462Z,99124.09
2023-01-06T02:39:52.302Z,99119.44
2023-01-06T02:42:20.482Z,99108.47
2023-01-06T02:44:47.630Z,99120.28
2023-01-06T02:47:00.441Z,99117.25
2023-01-06T02:49:11.128Z,99123.56
2023-01-06T02:51:31.378Z,99119.50
2023-01-06T02:53:44.952Z,99117.81
2023-01-06T02:55:49.157Z,99120.06
2023-01-06T02:58:02.156Z,99118.16
2023-01-06T03:00:10.065Z,99120.63
2023-01-06T03:02:12.941Z,99119.00
2023-01-06T03:04:22.900Z,99119.00
2023-01-06T03:06:29.567Z,99114.91
2023-01-06T03:08:32.810Z,99112.97
2023-01-06T03:10:34.772Z,99124.53
2023-01-06T03:12:48.400Z,99122.59
2023-01-06T03:14:55.079Z,99115.19
2023-01-06T03:16:58.101Z,99111.63
2023-01-06T03:18:59.780Z,99113.56
2023-01-06T03:21:08.268Z,99119.84
2023-01-06T03:23:10.239Z,99115.19
2023-01-06T03:25:12.607Z,99110.56
2023-01-06T03:27:24.278Z,99105.91
2023-01-06T03:29:26.250Z,99098.75
2023-01-06T03:31:49.174Z,99096.84
2023-01-06T03:34:04.676Z,99104.25
2023-01-06T03:36:54.178Z,99106.97
2023-01-06T03:39:18.466Z,99110.81
2023-01-06T03:41:53.494Z,99110.81
2023-01-06T03:44:15.004Z,99108.09
2023-01-06T03:46:42.813Z,99099.03
2023-01-06T03:49:22.313Z,99103.16
2023-01-06T03:51:40.644Z,99103.16
2023-01-06T03:54:02.846Z,99093.28
2023-01-06T03:56:21.898Z,99098.53
2023-01-06T03:58:26.375Z,99088.38
2023-01-06T04:00:31.346Z,99086.47
2023-01-06T04:02:40.168Z,99083.47
2023-01-06T04:04:43.761Z,99078.81
2023-01-06T04:06:49.781Z,99081.53
2023-01-06T04:08:51.681Z,99078.56
2023-01-06T04:10:53.473Z,99076.66
2023-01-06T04:12:55.300Z,99075.56
2023-01-06T04:15:06.988Z,99080.19
2023-01-06T04:17:08.596Z,99077.22
2023-01-06T04:19:10.412Z,99071.97
2023-01-06T04:21:12.352Z,99070.06
2023-01-06T04:23:13.922Z,99072.56
2023-01-06T04:25:16.613Z,99068.16
2023-01-06T04:27:18.113Z,99067.09
2023-01-06T04:29:31.125Z,99065.16
2023-01-06T04:31:35.645Z,99067.91
2023-01-06T04:33:37.860Z,99061.63
2023-01-06T04:35:43.454Z,99060.50
2023-01-06T04:37:45.045Z,99066.56
2023-01-06T04:39:46.683Z,99061.06
2023-01-06T04:41:48.268Z,99063.56
2023-01-06T04:43:49.901Z,99059.72
2023-01-06T04:45:53.863Z,99058.91
2023-01-06T04:47:55.425Z,99056.97
2023-01-06T04:49:59.911Z,99060.56
2023-01-06T04:52:01.476Z,99051.25
2023-01-06T04:54:03.117Z,99049.34
2023-01-06T04:56:06.948Z,99047.41
2023-01-06T04:58:09.580Z,99043.03
2023-01-06T05:00:11.960Z,99039.19
2023-01-06T05:02:13.480Z,99038.97
2023-01-06T05:04:15.077Z,99045.81
2023-01-06T05:06:17.507Z,99039.50
2023-01-06T05:08:20.324Z,99041.19
2023-01-06T05:10:23.230Z,99041.97
2023-01-06T05:12:24.784Z,99042.81
2023-01-06T05:14:26.611Z,99036.50
2023-01-06T05:16:33.510Z,99041.47
2023-01-06T05:18:35.920Z,99035.16
2023-01-06T05:20:37.595Z,99037.88
2023-01-06T05:22:39.228Z,99035.97
2023-01-06T05:24:40.925Z,99037.88
2023-01-06T05:26:42.602Z,99033.25
2023-01-06T05:28:44.335Z,99028.31
2023-01-06T05:30:46.085Z,99028.31
2023-01-06T05:32:47.617Z,99033.81
2023-01-06T05:34:50.362Z,99038.22
2023-01-06T05:36:52.012Z,99030.81
2023-01-06T05:38:54.201Z,99025.34
2023-01-06T05:40:56.863Z,99021.50
2023-01-06T05:42:58.626Z,99023.44
2023-01-06T05:45:00.190Z,99024.22
2023-01-06T05:47:01.882Z,99027.56
2023-01-06T05:49:03.836Z,99024.22
2023-01-06T05:51:14.384Z,99018.75
2023-01-06T05:53:16.320Z,99025.91
2023-01-06T05:55:18.077Z,99017.41
2023-01-06T05:57:22.357Z,99025.63
2023-01-06T05:59:24.051Z,99019.91
2023-01-06T06:01:28.664Z,99021.81
2023-01-06T06:03:31.370Z,99020.72
2023-01-06T06:05:32.931Z,99024.53
2023-01-06T06:07:34.463Z,99018.00
2023-01-06T06:09:36.120Z,99019.38
2023-01-06T06:11:46.751Z,99013.06
2023-01-06T06:13:53.894Z,99024.03
2023-01-06T06:16:15.622Z,99032.25
2023-01-06T06:18:17.363Z,99024.88
2023-01-06T06:20:18.829Z,99024.03
2023-01-06T06:22:20.639Z,99032.81
2023-01-06T06:24:22.182Z,99027.31
2023-01-06T06:26:24.322Z,99029.25
2023-01-06T06:28:25.859Z,99025.66
2023-01-06T06:30:27.570Z,99027.31
2023-01-06T06:32:35.228Z,99031.75
2023-01-06T06:34:36.976Z,99027.06
2023-01-06T06:36:38.679Z,99016.91
2023-01-06T06:38:40.192Z,99025.16
2023-01-06T06:40:44.715Z,99025.16
2023-01-06T06:42:51.166Z,99030.38
2023-01-06T06:44:52.841Z,99033.13
2023-01-06T06:46:54.722Z,99031.47
2023-01-06T06:48:56.258Z,99034.75
2023-01-06T06:50:59.110Z,99024.63
2023-01-06T06:53:00.720Z,99026.28
2023-01-06T06:55:03.002Z,99035.31
2023-01-06T06:57:04.559Z,99037.81
2023-01-06T06:59:09.078Z,99044.38
2023-01-06T07:01:13.207Z,99035.06
2023-01-06T07:03:14.790Z,99036.97
2023-01-06T07:05:17.635Z,99035.59
2023-01-06T07:07:19.407Z,99038.91
2023-01-06T07:09:21.172Z,99041.63
2023-01-06T07:11:23.180Z,99038.66
2023-01-06T07:13:24.722Z,99027.69
2023-01-06T07:15:26.365Z,99034.56
2023-01-06T07:17:28.476Z,99039.44
2023-01-06T07:19:29.993Z,99041.41
2023-01-06T07:21:31.617Z,99043.84
2023-01-06T07:23:33.995Z,99051.25
2023-01-06T07:25:35.663Z,99048.28
2023-01-06T07:27:38.086Z,99053.16
2023-01-06T07:29:41.122Z,99055.66
2023-01-06T07:31:42.730Z,99049.34
2023-01-06T07:33:44.254Z,99059.78
2023-01-06T07:35:46.189Z,99050.50
2023-01-06T07:37:50.550Z,99054.03
2023-01-06T07:39:52.371Z,99060.91
2023-01-06T07:41:53.920Z,99062.84
2023-01-06T07:43:55.444Z,99057.38
2023-01-06T07:45:58.189Z,99060.91
2023-01-06T07:47:59.995Z,99052.13
2023-01-06T07:50:02.159Z,99055.97
2023-01-06T07:52:03.857Z,99043.91
2023-01-06T07:54:06.590Z,99051.59
2023-01-06T07:56:11.412Z,99050.78
2023-01-06T07:58:13.035Z,99050.53
2023-01-06T08:00:15.486Z,99051.34
2023-01-06T08:02:20.809Z,99048.34
2023-01-06T08:04:23.540Z,99053.00
2023-01-06T08:06:25.072Z,99046.44
2023-01-06T08:08:26.591Z,99047.81
2023-01-06T08:10:37.439Z,99053.31
2023-01-06T08:12:39.084Z,99059.88
2023-01-06T08:14:40.693Z,99052.19
2023-01-06T08:16:42.335Z,99050.31
2023-01-06T08:18:44.117Z,99052.19
2023-01-06T08:20:45.869Z,99055.53
2023-01-06T08:22:47.600Z,99058.28
2023-01-06T08:24:52.512Z,99050.88
2023-01-06T08:26:54.093Z,99043.22
2023-01-06T08:28:55.640Z,99039.38
2023-01-06T08:30:59.920Z,99033.63
2023-01-06T08:33:01.705Z,99038.03
2023-01-06T08:35:03.337Z,99049.00
2023-01-06T08:37:05.064Z,99046.00
2023-01-06T08:39:09.029Z,99046.81
2023-01-06T08:41:11.854Z,99056.72
2023-01-06T08:43:13.623Z,99055.59
2023-01-06T08:45:15.295Z,99057.28
2023-01-06T08:47:17.081Z,99056.75
2023-01-06T08:49:22.016Z,99061.13
2023-01-06T08:51:30.802Z,99066.38
2023-01-06T08:53:36.654Z,99063.34
2023-01-06T08:55:40.994Z,99072.13
2023-01-06T08:57:42.799Z,99073.81
2023-01-06T08:59:44.553Z,99062.31
2023-01-06T09:01:46.308Z,99067.28
2023-01-06T09:03:48.092Z,99067.00
2023-01-06T09:05:57.209Z,99067.31
2023-01-06T09:07:58.772Z,99063.44
2023-01-06T09:10:00.436Z,99069.25
2023-01-06T09:12:02.078Z,99067.88
2023-01-06T09:14:03.951Z,99070.09
2023-01-06T09:16:09.787Z,99070.91
2023-01-06T09:18:14.697Z,99077.53
2023-01-06T09:20:18.692Z,99075.34
2023-01-06T09:22:20.349Z,99078.66
2023-01-06T09:24:22.009Z,99083.91
2023-01-06T09:26:23.470Z,99080.59
2023-01-06T09:28:25.637Z,99078.44
2023-01-06T09:30:27.528Z,99080.06
2023-01-06T09:32:29.041Z,99081.72
2023-01-06T09:34:30.636Z,99091.34
2023-01-06T09:36:34.561Z,99080.38
2023-01-06T09:38:36.230Z,99082.31
2023-01-06T09:40:55.132Z,99081.22
2023-01-06T09:43:17.444Z,99083.41
2023-01-06T09:45:21.022Z,99086.47
2023-01-06T09:47:32.444Z,99089.75
2023-01-06T09:49:39.967Z,99094.44
2023-01-06T09:51:42.127Z,99096.13
2023-01-06T09:53:51.743Z,99090.94
2023-01-06T09:56:00.685Z,99086.22
2023-01-06T09:58:10.201Z,99070.59
2023-01-06T10:00:35.426Z,99094.47
2023-01-06T10:02:40.706Z,99087.91
2023-01-06T10:04:42.229Z,99084.06
2023-01-06T10:07:13.622Z,99076.09
2023-01-06T10:09:45.173Z,99071.41
2023-01-06T10:12:05.662Z,99065.94
2023-01-06T10:14:16.339Z,99064.28
2023-01-06T10:17:09.191Z,99067.03
2023-01-06T10:19:27.514Z,99056.03
2023-01-06T10:21:54.219Z,99055.78
2023-01-06T10:24:23.304Z,99060.16
2023-01-06T10:26:43.146Z,99052.53
2023-01-06T10:28:56.511Z,99058.28
2023-01-06T10:31:02.762Z,99063.78
2023-01-06T10:33:06.589Z,99074.50
2023-01-06T10:35:13.721Z,99070.09
2023-01-06T10:37:24.803Z,99081.09
2023-01-06T10:39:28.336Z,99072.56
2023-01-06T10:41:38.297Z,99070.94
2023-01-06T10:43:39.784Z,99078.06
2023-01-06T10:45:46.543Z,99069.00
2023-01-06T10:47:51.328Z,99076.69
2023-01-06T10:49:55.652Z,99065.44
2023-01-06T10:52:00.551Z,99068.44
2023-01-06T10:54:10.744Z,99059.94
2023-01-06T10:56:12.637Z,99065.44
2023-01-06T10:58:47.624Z,99067.63
2023-01-06T11:01:15.632Z,99063.75
2023-01-06T11:03:32.941Z,99064.03
2023-01-06T11:05:35.470Z,99068.16
2023-01-06T11:07:39.605Z,99073.88
2023-01-06T11:09:45.212Z,99071.41
2023-01-06T11:11:49.276Z,99075.25
2023-01-06T11:13:56.502Z,99082.09
2023-01-06T11:16:01.910Z,99091.69
2023-01-06T11:18:06.256Z,99087.31
2023-01-06T11:20:13.919Z,99090.59
2023-01-06T11:22:39.403Z,99082.88
2023-01-06T11:24:52.685Z,99077.13
2023-01-06T11:27:00.090Z,99087.28
2023-01-06T11:29:18.713Z,99077.91
2023-01-06T11:31:28.041Z,99081.47
2023-01-06T11:33:32.437Z,99077.09
2023-01-06T11:35:34.054Z,99084.50
2023-01-06T11:37:43.374Z,99079.00
2023-01-06T11:39:49.128Z,99080.91
2023-01-06T11:41:56.368Z,99074.59
2023-01-06T11:44:08.114Z,99077.34
2023-01-06T11:46:10.756Z,99081.75
2023-01-06T11:48:51.611Z,99074.59
2023-01-06T11:50:58.900Z,99074.34
2023-01-06T11:53:14.990Z,99074.06
2023-01-06T11:55:16.520Z,99071.06
2023-01-06T11:57:30.869Z,99075.47
2023-01-06T11:59:48.324Z,99077.13
2023-01-06T12:01:57.998Z,99083.69
2023-01-06T12:04:17.142Z,99083.41
2023-01-06T12:06:29.119Z,99073.28
2023-01-06T12:08:43.186Z,99083.16
2023-01-06T12:10:50.649Z,99079.06
2023-01-06T12:12:54.755Z,99074.41
2023-01-06T12:14:56.801Z,99065.06
2023-01-06T12:17:21.750Z,99057.09
2023-01-06T12:19:46.283Z,99047.19
2023-01-06T12:21:47.965Z,99043.91
2023-01-06T12:23:51.581Z,99035.97
2023-01-06T12:25:57.711Z,99036.75
2023-01-06T12:28:05.289Z,99034.59
2023-01-06T12:30:34.220Z,99021.94
2023-01-06T12:32:42.625Z,99030.75
2023-01-06T12:34:48.631Z,99033.22
2023-01-06T12:36:59.058Z,99029.38
2023-01-06T12:39:45.756Z,99020.88
2023-01-06T12:41:47.287Z,99028.84
2023-01-06T12:43:58.762Z,99027.47
2023-01-06T12:46:19.632Z,99035.44
2023-01-06T12:48:33.270Z,99035.19
2023-01-06T12:50:36.342Z,99026.41
2023-01-06T12:52:42.546Z,99025.31
2023-01-06T12:54:51.527Z,99032.19
2023-01-06T12:57:14.775Z,99036.84
2023-01-06T12:59:16.482Z,99045.91
2023-01-06T13:01:24.875Z,99046.22
2023-01-06T13:03:38.061Z,99041.53
2023-01-06T13:05:54.744Z,99039.59
2023-01-06T13:08:38.006Z,99053.91
2023-01-06T13:10:47.067Z,99060.22
2023-01-06T13:13:34.352Z,99069.28
2023-01-06T13:15:40.750Z,99077.00
2023-01-06T13:17:51.918Z,99067.66
2023-01-06T13:19:56.324Z,99069.84
2023-01-06T13:22:01.451Z,99062.44
2023-01-06T13:24:15.624Z,99061.59
2023-01-06T13:26:23.081Z,99059.47
2023-01-06T13:28:30.392Z,99051.22
2023-01-06T13:30:38.177Z,99052.88
2023-01-06T13:33:03.823Z,99054.78
2023-01-06T13:35:32.944Z,99065.78
2023-01-06T13:37:50.273Z,99062.22
2023-01-06T13:39:59.596Z,99048.69
2023-01-06T13:42:04.254Z,99051.44
2023-01-06T13:44:17.202Z,99054.47
2023-01-06T13:46:21.864Z,99050.06
2023-01-06T13:48:31.171Z,99050.34
2023-01-06T13:50:33.090Z,99054.47
2023-01-06T13:52:35.512Z,99053.91
2023-01-06T13:54:39.873Z,99054.72
2023-01-06T13:56:41.479Z,99055.56
2023-01-06T13:58:44.681Z,99057.47
2023-01-06T14:01:24.480Z,99052.25
2023-01-06T14:03:26.347Z,99047.03
2023-01-06T14:05:30.991Z,99047.28
2023-01-06T14:07:34.347Z,99049.78
2023-01-06T14:09:56.180Z,99062.13
2023-01-06T14:12:14.762Z,99062.94
2023-01-06T14:14:32.482Z,99069.00
2023-01-06T14:16:44.599Z,99062.66
2023-01-06T14:18:54.195Z,99067.06
2023-01-06T14:21:06.071Z,99072.81
2023-01-06T14:23:13.487Z,99069.53
2023-01-06T14:25:25.077Z,99067.34
2023-01-06T14:27:45.410Z,99067.63
2023-01-06T14:30:00.535Z,99074.19
2023-01-06T14:32:02.085Z,99072.53
2023-01-06T14:34:05.470Z,99078.00
2023-01-06T14:36:17.881Z,99090.13
2023-01-06T14:38:41.277Z,99082.13
2023-01-06T14:40:55.235Z,99083.25
2023-01-06T14:43:06.840Z,99081.56
2023-01-06T14:45:26.414Z,99085.16
2023-01-06T14:47:37.434Z,99079.09
2023-01-06T14:49:49.813Z,99092.56
2023-01-06T14:51:55.641Z,99091.47
2023-01-06T14:54:04.684Z,99094.47
2023-01-06T14:56:07.226Z,99090.94
2023-01-06T14:58:27.833Z,99090.09
2023-01-06T15:00:35.743Z,99095.59
2023-01-06T15:02:39.632Z,99090.34
2023-01-06T15:04:45.010Z,99088.44
2023-01-06T15:06:56.778Z,99085.13
2023-01-06T15:09:33.042Z,99078.81
2023-01-06T15:11:42.222Z,99087.31
2023-01-06T15:13:45.762Z,99092.81
2023-01-06T15:16:05.022Z,99098.56
2023-01-06T15:18:07.683Z,99091.69
2023-01-06T15:20:13.525Z,99101.03
2023-01-06T15:22:25.395Z,99102.38
2023-01-06T15:24:31.011Z,99110.88
2023-01-06T15:26:32.654Z,99105.09
2023-01-06T15:28:38.226Z,99109.75
2023-01-06T15:30:50.608Z,99106.47
2023-01-06T15:32:53.821Z,99104.56
2023-01-06T15:34:58.007Z,99117.44
2023-01-06T15:37:02.326Z,99108.38
2023-01-06T15:39:07.310Z,99111.97
2023-01-06T15:41:31.818Z,99110.28
2023-01-06T15:43:42.351Z,99116.06
2023-01-06T15:45:56.682Z,99114.16
2023-01-06T15:48:02.498Z,99112.75
2023-01-06T15:50:16.322Z,99114.13
2023-01-06T15:52:21.099Z,99115.72
2023-01-06T15:54:28.074Z,99118.75
2023-01-06T15:56:35.093Z,99122.56
2023-01-06T15:58:39.559Z,99123.41
2023-01-06T16:00:48.190Z,99120.34
2023-01-06T16:02:50.094Z,99125.59
2023-01-06T16:04:52.051Z,99120.09
2023-01-06T16:06:55.882Z,99122.28
2023-01-06T16:09:37.696Z,99121.16
2023-01-06T16:11:57.768Z,99120.59
2023-01-06T16:13:59.379Z,99126.34
2023-01-06T16:16:06.220Z,99124.13
2023-01-06T16:18:09.811Z,99118.88
2023-01-06T16:20:24.554Z,99124.09
2023-01-06T16:22:36.041Z,99120.78
2023-01-06T16:24:37.669Z,99121.03
2023-01-06T16:26:52.343Z,99120.47
2023-01-06T16:28:57.048Z,99125.41
2023-01-06T16:31:07.437Z,99121.00
2023-01-06T16:33:33.354Z,99126.19
2023-01-06T16:35:35.033Z,99131.09
2023-01-06T16:37:37.617Z,99128.34
2023-01-06T16:39:39.271Z,99125.88
2023-01-06T16:42:32.480Z,99128.06
2023-01-06T16:44:34.484Z,99131.34
2023-01-06T16:46:36.147Z,99138.72
2023-01-06T16:48:37.803Z,99134.34
2023-01-06T16:50:41.327Z,99137.34
2023-01-06T16:52:44.699Z,99131.28
2023-01-06T16:54:52.688Z,99134.31
2023-01-06T16:56:54.574Z,99134.56
2023-01-06T16:58:56.363Z,99125.50
2023-01-06T17:01:01.166Z,99125.75
2023-01-06T17:03:13.519Z,99133.44
2023-01-06T17:05:21.267Z,99130.91
2023-01-06T17:07:25.339Z,99132.84
2023-01-06T17:09:28.822Z,99129.50
2023-01-06T17:11:37.694Z,99128.13
2023-01-06T17:13:45.695Z,99141.03
2023-01-06T17:15:51.767Z,99137.69
2023-01-06T17:17:53.524Z,99139.88
2023-01-06T17:19:55.674Z,99137.41
2023-01-06T17:22:20.576Z,99138.75
2023-01-06T17:24:24.647Z,99138.75
2023-01-06T17:26:26.903Z,99137.09
2023-01-06T17:28:30.921Z,99129.13
2023-01-06T17:30:32.692Z,99133.78
2023-01-06T17:32:41.218Z,99137.34
2023-01-06T17:34:42.719Z,99143.06
2023-01-06T17:36:50.828Z,99145.25
2023-01-06T17:38:52.563Z,99151.81
2023-01-06T17:40:55.305Z,99148.50
2023-01-06T17:43:31.271Z,99150.69
2023-01-06T17:45:34.077Z,99146.03
2023-01-06T17:47:45.777Z,99146.28
2023-01-06T17:49:54.927Z,99148.22
2023-01-06T17:51:56.834Z,99152.59
2023-01-06T17:54:17.335Z,99150.13
2023-01-06T17:56:25.360Z,99151.19
2023-01-06T17:58:30.156Z,99153.38
2023-01-06T18:00:34.653Z,99160.53
2023-01-06T18:02:43.015Z,99159.13
2023-01-06T18:04:46.459Z,99159.94
2023-01-06T18:06:52.859Z,99163.50
2023-01-06T18:09:01.794Z,99159.38
2023-01-06T18:11:22.479Z,99156.63
2023-01-06T18:13:30.472Z,99161.28
2023-01-06T18:15:35.827Z,99156.06
2023-01-06T18:17:37.456Z,99163.22
2023-01-06T18:19:39.166Z,99165.97
2023-01-06T18:21:41.202Z,99161.56
2023-01-06T18:23:47.421Z,99168.09
2023-01-06T18:25:55.795Z,99171.94
2023-01-06T18:28:02.393Z,99171.13
2023-01-06T18:30:20.989Z,99178.50
2023-01-06T18:32:32.775Z,99177.66
2023-01-06T18:34:39.972Z,99175.75
2023-01-06T18:36:44.460Z,99176.03
2023-01-06T18:38:47.167Z,99169.72
2023-01-06T18:40:51.605Z,99166.97
2023-01-06T18:42:56.978Z,99172.47
2023-01-06T18:45:15.339Z,99172.72
2023-01-06T18:47:22.521Z,99181.75
2023-01-06T18:49:32.358Z,99179.28
2023-01-06T18:51:33.955Z,99177.38
2023-01-06T18:53:43.515Z,99181.69
2023-01-06T18:55:46.136Z,99181.47
2023-01-06T18:58:01.070Z,99178.16
2023-01-06T19:00:36.164Z,99176.47
2023-01-06T19:02:39.411Z,99184.97
2023-01-06T19:04:42.575Z,99167.44
2023-01-06T19:06:50.389Z,99169.34
2023-01-06T19:08:52.440Z,99168.53
2023-01-06T19:10:54.147Z,99170.44
2023-01-06T19:12:59.068Z,99174.00
2023-01-06T19:15:18.649Z,99177.00
2023-01-06T19:17:33.614Z,99175.34
2023-01-06T19:19:39.782Z,99161.88
2023-01-06T19:21:41.284Z,99171.22
2023-01-06T19:23:43.043Z,99169.53
2023-01-06T19:25:48.550Z,99169.53
2023-01-06T19:27:53.488Z,99162.41
2023-01-06T19:30:13.226Z,99160.75
2023-01-06T19:33:23.590Z,99160.19
2023-01-06T19:35:33.200Z,99158.53
2023-01-06T19:37:34.657Z,99163.19
2023-01-06T19:43:19.570Z,99160.94
2023-01-06T19:45:32.538Z,99165.03
2023-01-06T19:47:40.896Z,99160.13
2023-01-06T19:49:46.622Z,99167.53
2023-01-06T19:51:50.107Z,99158.47
2023-01-06T19:54:02.047Z,99159.31
2023-01-06T19:56:20.699Z,99155.72
2023-01-06T19:58:34.469Z,99160.38
2023-01-06T20:00:50.183Z,99161.47
2023-01-06T20:02:57.429Z,99166.69
2023-01-06T20:04:59.305Z,99176.56
2023-01-06T20:07:02.218Z,99171.09
2023-01-06T20:09:03.834Z,99168.59
2023-01-06T20:11:05.678Z,99164.78
2023-01-06T20:13:11.802Z,99174.91
2023-01-06T20:15:16.573Z,99170.25
2023-01-06T20:17:18.201Z,99171.09
2023-01-06T20:19:21.562Z,99162.88
2023-01-06T20:21:23.280Z,99174.91
2023-01-06T20:30:09.422Z,99177.31
2023-01-06T20:32:12.424Z,99182.56
2023-01-06T20:34:14.284Z,99181.72
2023-01-06T20:36:17.312Z,99180.88
2023-01-06T20:38:19.191Z,99182.56
2023-01-06T20:40:22.510Z,99184.47
2023-01-06T20:42:24.091Z,99172.66
2023-01-06T20:44:27.273Z,99178.97
2023-01-06T20:46:31.685Z,99179.81
2023-01-06T20:48:33.400Z,99176.25
2023-01-06T20:50:35.385Z,99180.66
2023-01-06T20:52:37.058Z,99178.97
2023-01-06T20:54:38.815Z,99178.72
2023-01-06T20:56:41.582Z,99180.66
2023-01-06T20:58:43.213Z,99181.72
2023-01-06T21:00:44.985Z,99176.25
2023-01-06T21:02:49.241Z,99182.00
2023-01-06T21:04:51.173Z,99176.25
2023-01-06T21:06:52.815Z,99174.56
2023-01-06T21:08:57.397Z,99184.72
2023-01-06T21:10:59.075Z,99171.03
2023-01-06T21:13:00.791Z,99171.03
2023-01-06T21:15:06.782Z,99176.25
2023-01-06T21:17:08.415Z,99165.28
2023-01-06T21:19:09.987Z,99172.66
2023-01-06T21:21:11.580Z,99176.50
2023-01-06T21:23:13.164Z,99168.28
2023-01-06T21:25:16.475Z,99175.41
2023-01-06T21:27:18.223Z,99169.09
2023-01-06T21:29:19.861Z,99173.50
2023-01-06T21:31:24.987Z,99169.94
2023-01-06T21:33:27.702Z,99165.56
2023-01-06T21:35:29.442Z,99168.28
2023-01-06T21:37:32.169Z,99162.81
2023-01-06T21:39:33.782Z,99159.47
2023-01-06T21:44:09.568Z,99167.97
2023-01-06T21:46:11.380Z,99165.50
2023-01-06T21:48:14.599Z,99165.50
2023-01-06T21:50:16.427Z,99168.47
2023-01-06T21:52:18.219Z,99172.31
2023-01-06T21:54:20.606Z,99176.97
2023-01-06T21:56:24.836Z,99178.03
2023-01-06T21:58:26.574Z,99176.63
2023-01-06T22:00:28.399Z,99176.63
2023-01-06T22:02:30.037Z,99175.78
2023-01-06T22:04:31.846Z,99182.09
2023-01-06T22:06:34.999Z,99181.25
2023-01-06T22:08:37.320Z,99185.94
2023-01-06T22:10:41.322Z,99184.28
2023-01-06T22:12:45.406Z,99181.53
2023-01-06T22:14:50.429Z,99181.25
2023-01-06T22:16:52.648Z,99189.47
2023-01-06T22:18:55.290Z,99184.00
2023-01-06T22:20:58.894Z,99180.69
2023-01-06T22:23:03.546Z,99179.63
2023-01-06T22:25:08.358Z,99175.00
2023-01-06T22:27:10.196Z,99179.63
2023-01-06T22:29:11.955Z,99185.09
2023-01-06T22:31:13.774Z,99178.78
2023-01-06T22:33:18.427Z,99183.44
2023-01-06T22:35:20.553Z,99176.06
2023-01-06T22:37:22.097Z,99182.94
2023-01-06T22:39:24.103Z,99174.16
2023-01-06T22:41:25.839Z,99175.00
2023-01-06T22:43:30.814Z,99168.69
2023-01-06T22:45:35.064Z,99173.06
2023-01-06T22:47:36.776Z,99175.78
2023-01-06T22:49:38.276Z,99170.31
2023-01-06T22:51:40.154Z,99168.41
2023-01-06T22:53:44.721Z,99178.53
2023-01-06T22:55:46.373Z,99181.25
2023-01-06T22:57:48.131Z,99179.63
2023-01-06T22:59:49.666Z,99176.63
2023-01-06T23:01:52.924Z,99176.63
2023-01-06T23:03:54.872Z,99179.63
2023-01-06T23:06:02.168Z,99173.88
2023-01-06T23:08:06.894Z,99174.16
2023-01-06T23:10:14.954Z,99178.53
2023-01-06T23:12:16.587Z,99171.41
2023-01-06T23:14:18.379Z,99182.38
2023-01-06T23:16:20.236Z,99179.63
2023-01-06T23:18:21.781Z,99168.69
2023-01-06T23:20:23.581Z,99175.22
2023-01-06T23:22:26.645Z,99165.09
2023-01-06T23:24:30.628Z,99165.94
2023-01-06T23:26:37.522Z,99164.25
2023-01-06T23:28:39.504Z,99157.72
2023-01-06T23:30:41.027Z,99156.88
2023-01-06T23:32:42.654Z,99155.81
2023-01-06T23:34:44.227Z,99157.72
2023-01-06T23:36:48.444Z,99149.75
2023-01-06T23:38:50.516Z,99149.75
2023-01-06T23:40:52.147Z,99158.78
2023-01-06T23:42:59.880Z,99151.69
2023-01-06T23:45:01.959Z,99150.56
2023-01-06T23:47:03.648Z,99156.88
2023-01-06T23:49:06.379Z,99157.97
2023-01-06T23:51:09.390Z,99151.69
2023-01-06T23:53:11.083Z,99157.38
2023-01-06T23:55:12.737Z,99160.47
2023-01-06T23:57:16.154Z,99154.97
2023-01-06T23:59:17.836Z,99151.41
